Time;durP1;ratioP1;P1;durP2;ratioP2;P2;SDS_P1;SDS_P2;PMS_P1;PMS_P2;Temp;Humidity;BMP_temperature;BMP_pressure;BME280_temperature;BME280_humidity;BME280_pressure;Samples;Min_cycle;Max_cycle;Signal;HPM_P1;HPM_P2
2021/04/04 00:01:26;;;;;;;17.23;9.17;;;;;;;4.41;74.02;101412.38;5068582;28;20201;-80
2021/04/04 00:03:52;;;;;;;19.63;8.33;;;;;;;4.20;74.85;101410.16;5054466;28;20204;-80
2021/04/04 00:06:18;;;;;;;21.50;9.33;;;;;;;4.13;75.84;101406.59;5062788;28;20221;-80
2021/04/04 00:08:45;;;;;;;18.40;9.70;;;;;;;3.99;76.60;101405.41;5066748;28;20951;-80
2021/04/04 00:11:11;;;;;;;21.07;9.43;;;;;;;4.06;76.54;101406.41;5065096;28;20246;-80
2021/04/04 00:13:38;;;;;;;18.43;8.67;;;;;;;4.07;76.53;101405.59;5057583;28;20288;-81
2021/04/04 00:16:04;;;;;;;18.03;8.77;;;;;;;3.94;76.74;101404.41;5066879;28;20193;-80
2021/04/04 00:18:30;;;;;;;24.27;9.07;;;;;;;3.96;77.71;101408.78;5069175;28;20739;-80
2021/04/04 00:20:56;;;;;;;21.70;8.73;;;;;;;4.03;77.56;101408.94;5066607;28;20582;-81
2021/04/04 00:23:22;;;;;;;27.43;8.10;;;;;;;4.18;77.24;101404.09;5070674;28;20214;-81
2021/04/04 00:25:48;;;;;;;19.83;8.23;;;;;;;4.41;76.42;101398.59;5066449;28;20232;-80
2021/04/04 00:28:14;;;;;;;16.87;7.93;;;;;;;4.55;75.83;101394.56;5068772;28;20657;-81
2021/04/04 00:30:41;;;;;;;13.33;7.67;;;;;;;4.66;76.16;101395.69;5065036;28;20209;-80
2021/04/04 00:33:07;;;;;;;25.87;8.63;;;;;;;4.80;75.53;101395.97;5056444;28;20269;-81
2021/04/04 00:35:33;;;;;;;13.63;8.00;;;;;;;4.90;74.86;101386.66;5044529;28;20234;-82
2021/04/04 00:37:59;;;;;;;21.13;8.07;;;;;;;5.07;74.26;101392.16;5055251;28;20205;-82
2021/04/04 00:40:27;;;;;;;17.80;7.73;;;;;;;5.01;72.28;101386.88;5069700;28;20208;-81
2021/04/04 00:42:53;;;;;;;13.87;8.33;;;;;;;4.83;73.76;101382.22;5054224;28;20259;-81
2021/04/04 00:45:22;;;;;;;27.47;7.97;;;;;;;4.78;74.12;101379.53;5054972;28;20270;-81
2021/04/04 00:47:49;;;;;;;17.90;8.50;;;;;;;4.49;74.43;101387.56;5062803;28;20208;-80
2021/04/04 00:50:17;;;;;;;18.93;7.90;;;;;;;4.43;74.11;101382.25;5060643;28;20210;-80
2021/04/04 00:52:44;;;;;;;17.20;7.40;;;;;;;4.44;74.48;101381.44;5073127;28;20638;-80
2021/04/04 00:55:11;;;;;;;18.07;8.17;;;;;;;4.26;74.93;101393.94;5063897;28;20227;-80
2021/04/04 00:57:37;;;;;;;15.67;7.80;;;;;;;4.12;75.79;101399.69;5072684;28;20200;-80
2021/04/04 01:00:07;;;;;;;20.30;7.50;;;;;;;4.18;75.61;101386.91;5063019;28;20658;-81
2021/04/04 01:02:33;;;;;;;16.63;9.37;;;;;;;4.24;75.45;101388.75;5074337;28;20205;-80
2021/04/04 01:05:01;;;;;;;13.70;8.40;;;;;;;4.35;75.66;101392.44;5065061;28;20224;-80
2021/04/04 01:07:27;;;;;;;15.07;7.90;;;;;;;4.49;75.01;101391.84;5071036;28;20200;-80
2021/04/04 01:09:53;;;;;;;18.60;7.73;;;;;;;4.56;74.78;101392.03;5066019;28;20326;-81
2021/04/04 01:12:27;;;;;;;14.07;7.47;;;;;;;4.66;74.55;101397.38;5046866;28;20209;-80
2021/04/04 01:15:01;;;;;;;21.80;7.70;;;;;;;4.53;74.96;101404.00;5053782;28;20196;-80
2021/04/04 01:17:28;;;;;;;16.80;7.23;;;;;;;4.58;75.03;101402.41;5056947;28;20228;-80
2021/04/04 01:20:07;;;;;;;20.67;8.17;;;;;;;4.54;75.13;101403.19;5052863;28;20237;-81
2021/04/04 01:22:55;;;;;;;18.50;7.67;;;;;;;4.36;76.06;101403.63;5052279;28;20213;-80
2021/04/04 01:25:26;;;;;;;15.13;7.10;;;;;;;4.28;76.08;101400.00;5049496;28;20261;-81
2021/04/04 01:27:56;;;;;;;12.20;7.43;;;;;;;4.28;76.29;101400.00;5042282;28;20668;-80
2021/04/04 01:30:25;;;;;;;19.40;8.50;;;;;;;4.34;76.16;101395.88;5061417;28;20559;-81
2021/04/04 01:32:52;;;;;;;19.57;7.43;;;;;;;4.44;76.23;101393.47;5061396;28;20204;-81
2021/04/04 01:35:21;;;;;;;16.23;7.67;;;;;;;4.63;75.71;101394.75;5061266;28;20202;-81
2021/04/04 01:37:52;;;;;;;14.60;6.87;;;;;;;4.81;75.83;101396.81;5072922;28;20196;-80
2021/04/04 01:40:20;;;;;;;14.43;7.40;;;;;;;4.95;75.02;101390.19;5060207;28;20213;-81
2021/04/04 01:42:50;;;;;;;15.93;7.83;;;;;;;5.04;74.58;101395.56;5072816;28;20200;-82
2021/04/04 01:45:18;;;;;;;14.63;6.73;;;;;;;5.13;74.68;101397.44;5061989;28;20263;-78
2021/04/04 01:47:46;;;;;;;13.27;6.30;;;;;;;5.10;73.46;101387.06;5072496;28;20228;-81
2021/04/04 01:50:13;;;;;;;14.47;7.47;;;;;;;4.97;73.46;101391.09;5061080;28;20228;-81
2021/04/04 01:52:39;;;;;;;12.63;7.77;;;;;;;4.97;73.53;101388.50;5071619;28;20679;-80
2021/04/04 01:55:08;;;;;;;20.83;8.07;;;;;;;5.08;73.95;101391.31;5062126;28;20197;-81
2021/04/04 01:57:34;;;;;;;20.27;7.77;;;;;;;5.15;73.63;101388.88;5070811;28;20201;-81
2021/04/04 02:00:01;;;;;;;15.93;7.80;;;;;;;4.89;73.21;101382.31;5060750;28;20232;-81
2021/04/04 02:02:29;;;;;;;16.20;7.73;;;;;;;4.88;73.44;101380.59;5072842;28;20201;-81
2021/04/04 02:04:56;;;;;;;13.17;6.97;;;;;;;4.72;73.85;101385.47;5062522;28;20217;-80
2021/04/04 02:07:22;;;;;;;22.33;7.70;;;;;;;4.77;73.92;101383.81;5069257;28;20200;-79
2021/04/04 02:09:48;;;;;;;15.43;7.47;;;;;;;4.60;74.46;101384.31;5063307;28;20233;-78
2021/04/04 02:12:16;;;;;;;18.20;7.73;;;;;;;4.69;73.81;101380.22;5068114;28;20212;-78
2021/04/04 02:14:45;;;;;;;19.20;7.27;;;;;;;4.66;73.52;101381.84;5065922;28;20220;-79
2021/04/04 02:17:12;;;;;;;16.23;6.80;;;;;;;4.66;73.97;101375.00;5066953;28;20208;-79
2021/04/04 02:19:39;;;;;;;18.50;8.27;;;;;;;4.54;74.32;101373.03;5066346;28;20229;-80
2021/04/04 02:22:05;;;;;;;15.30;7.20;;;;;;;4.43;74.41;101365.88;5068225;28;20209;-82
2021/04/04 02:24:33;;;;;;;16.83;6.83;;;;;;;4.34;74.81;101369.13;5069162;28;20200;-79
2021/04/04 02:26:59;;;;;;;23.77;7.17;;;;;;;4.41;75.05;101363.25;5068776;28;20254;-79
2021/04/04 02:29:25;;;;;;;12.60;5.83;;;;;;;4.53;73.97;101362.66;5063351;28;20225;-79
2021/04/04 02:31:56;;;;;;;12.33;6.53;;;;;;;4.28;74.30;101359.56;5073155;28;20642;-79
2021/04/04 02:34:26;;;;;;;9.03;6.03;;;;;;;4.20;74.93;101355.91;5065230;28;20837;-79
2021/04/04 02:36:54;;;;;;;18.67;5.73;;;;;;;4.08;75.94;101363.38;5060231;28;20232;-79
2021/04/04 02:39:26;;;;;;;15.97;6.77;;;;;;;4.05;76.24;101360.75;5060044;28;20220;-78
2021/04/04 02:41:53;;;;;;;14.17;6.07;;;;;;;4.03;76.40;101363.28;5053737;28;20698;-79
2021/04/04 02:44:19;;;;;;;11.87;5.53;;;;;;;4.05;76.36;101363.34;5053125;28;20205;-78
2021/04/04 02:46:51;;;;;;;18.63;6.47;;;;;;;4.10;76.68;101362.59;5055682;28;20320;-78
2021/04/04 02:49:17;;;;;;;14.37;6.67;;;;;;;4.09;76.35;101370.31;5052966;28;20245;-79
2021/04/04 02:51:47;;;;;;;17.13;7.07;;;;;;;3.96;77.49;101362.28;5055448;28;20201;-78
2021/04/04 02:54:19;;;;;;;15.60;6.37;;;;;;;3.89;77.58;101364.69;5046172;28;20233;-78
2021/04/04 02:56:48;;;;;;;28.73;6.93;;;;;;;3.80;78.06;101360.16;5054604;28;20625;-79
2021/04/04 02:59:19;;;;;;;16.33;6.37;;;;;;;3.78;78.09;101356.69;5052847;28;20731;-78
2021/04/04 03:01:45;;;;;;;14.80;7.10;;;;;;;3.75;78.46;101354.91;5059600;28;20205;-79
2021/04/04 03:04:12;;;;;;;15.70;6.57;;;;;;;3.86;77.93;101356.88;5052788;28;20202;-79
2021/04/04 03:06:41;;;;;;;20.80;7.20;;;;;;;3.87;78.24;101356.03;5054926;28;20213;-79
2021/04/04 03:09:08;;;;;;;19.50;7.03;;;;;;;3.90;77.96;101350.94;5047073;28;20244;-81
2021/04/04 03:11:36;;;;;;;19.07;7.33;;;;;;;3.96;78.54;101358.81;5054131;28;20205;-78
2021/04/04 03:14:04;;;;;;;16.10;7.17;;;;;;;3.97;79.01;101351.09;5050247;28;20229;-78
2021/04/04 03:16:31;;;;;;;11.93;7.00;;;;;;;3.99;78.13;101353.72;5055137;28;20679;-79
2021/04/04 03:19:00;;;;;;;10.33;6.70;;;;;;;3.91;78.83;101353.56;5054523;28;20224;-80
2021/04/04 03:21:27;;;;;;;12.77;6.80;;;;;;;4.05;78.78;101346.13;5063722;28;20223;-81
2021/04/04 03:23:54;;;;;;;13.53;6.67;;;;;;;4.05;78.17;101343.53;5067022;28;20208;-81
2021/04/04 03:26:21;;;;;;;15.53;6.87;;;;;;;3.97;78.25;101347.66;5063463;28;20220;-80
2021/04/04 03:28:48;;;;;;;15.80;7.80;;;;;;;3.95;78.81;101341.59;5066403;28;20244;-81
2021/04/04 03:31:15;;;;;;;14.80;7.43;;;;;;;4.04;78.39;101341.78;5066866;28;20203;-81
2021/04/04 03:33:42;;;;;;;15.63;7.60;;;;;;;4.07;77.73;101341.84;5065172;28;20242;-80
2021/04/04 03:36:12;;;;;;;15.27;6.60;;;;;;;4.25;77.78;101332.75;5063368;28;20189;-81
2021/04/04 03:38:38;;;;;;;21.33;7.03;;;;;;;4.21;76.96;101331.81;5065849;28;20260;-81
2021/04/04 03:41:05;;;;;;;11.33;7.07;;;;;;;4.25;76.63;101331.03;5063312;28;20196;-81
2021/04/04 03:43:34;;;;;;;14.47;7.10;;;;;;;4.45;74.92;101318.53;5065808;28;20197;-81
2021/04/04 03:46:05;;;;;;;18.20;7.83;;;;;;;4.13;76.12;101320.47;5065024;28;20248;-81
2021/04/04 03:48:33;;;;;;;9.73;6.73;;;;;;;4.03;76.92;101321.09;5071829;28;20217;-81
2021/04/04 03:51:03;;;;;;;18.40;8.13;;;;;;;4.01;77.20;101321.06;5067376;28;20228;-81
2021/04/04 03:53:30;;;;;;;14.17;7.80;;;;;;;4.09;76.63;101318.66;5071538;28;20672;-81
2021/04/04 03:56:00;;;;;;;14.27;6.90;;;;;;;4.12;77.46;101318.69;5067065;28;20200;-81
2021/04/04 03:58:28;;;;;;;15.43;7.60;;;;;;;4.22;77.14;101319.75;5070344;28;20264;-81
2021/04/04 04:00:56;;;;;;;18.40;7.17;;;;;;;4.06;76.58;101318.56;5068398;28;20197;-81
2021/04/04 04:03:24;;;;;;;16.47;8.03;;;;;;;3.96;77.08;101320.97;5071016;28;20745;-81
2021/04/04 04:05:50;;;;;;;14.70;6.53;;;;;;;4.14;77.85;101319.59;5055236;28;20213;-81
2021/04/04 04:08:17;;;;;;;14.40;7.77;;;;;;;4.09;77.72;101321.22;5053809;28;20271;-81
2021/04/04 04:10:44;;;;;;;19.30;8.47;;;;;;;3.94;77.04;101317.47;5064770;28;20580;-81
2021/04/04 04:13:12;;;;;;;16.40;7.93;;;;;;;3.88;77.34;101317.31;5072911;28;20208;-81
2021/04/04 04:15:38;;;;;;;21.77;7.40;;;;;;;3.95;77.72;101313.19;5062998;28;20197;-81
2021/04/04 04:18:06;;;;;;;13.93;7.23;;;;;;;3.91;77.05;101307.06;5054300;28;20205;-81
2021/04/04 04:20:33;;;;;;;20.23;9.00;;;;;;;3.73;77.45;101306.66;5064051;28;20205;-81
2021/04/04 04:23:03;;;;;;;13.20;8.87;;;;;;;3.67;77.62;101302.22;5074566;28;20200;-81
2021/04/04 04:25:30;;;;;;;15.73;7.83;;;;;;;3.70;78.00;101301.41;5063126;28;20225;-81
2021/04/04 04:27:57;;;;;;;11.87;8.27;;;;;;;3.68;78.64;101285.00;5074611;28;20282;-81
2021/04/04 04:30:24;;;;;;;16.93;8.10;;;;;;;3.73;78.46;101286.88;5064297;28;20209;-81
2021/04/04 04:32:55;;;;;;;11.27;7.20;;;;;;;3.90;77.67;101274.31;5066177;28;20207;-81
2021/04/04 04:35:22;;;;;;;14.90;7.20;;;;;;;4.12;76.72;101278.25;5069788;28;20216;-82
2021/04/04 04:37:51;;;;;;;15.50;6.53;;;;;;;4.37;76.38;101277.03;5055737;28;20219;-80
2021/04/04 04:40:19;;;;;;;16.77;7.17;;;;;;;4.51;74.74;101279.88;5062864;28;20209;-81
2021/04/04 04:42:50;;;;;;;12.37;6.77;;;;;;;4.37;73.81;101277.03;5073699;28;20250;-81
2021/04/04 04:45:17;;;;;;;16.57;6.70;;;;;;;4.37;74.53;101273.56;5064253;28;20310;-81
2021/04/04 04:47:44;;;;;;;12.77;7.57;;;;;;;4.27;73.88;101274.22;5074167;28;20200;-80
2021/04/04 04:50:11;;;;;;;16.70;7.80;;;;;;;4.08;74.90;101279.00;5064852;28;20225;-80
2021/04/04 04:52:37;;;;;;;11.73;7.27;;;;;;;3.85;76.16;101282.81;5072960;28;20574;-80
2021/04/04 04:55:06;;;;;;;18.67;8.03;;;;;;;3.69;77.44;101277.31;5064514;28;20206;-80
2021/04/04 04:57:33;;;;;;;12.00;7.67;;;;;;;3.66;77.69;101273.78;5070991;28;20235;-80
2021/04/04 05:00:00;;;;;;;15.47;7.53;;;;;;;3.85;77.17;101270.78;5063082;28;20228;-81
2021/04/04 05:02:26;;;;;;;18.83;8.00;;;;;;;3.71;77.46;101262.72;5074400;28;20636;-80
2021/04/04 05:04:52;;;;;;;13.73;7.37;;;;;;;3.76;77.68;101273.13;5065243;28;20201;-80
2021/04/04 05:07:19;;;;;;;16.47;7.53;;;;;;;3.71;77.40;101265.31;5070516;28;20201;-80
2021/04/04 05:09:47;;;;;;;12.40;7.10;;;;;;;3.63;77.81;101259.09;5058688;22;20259;-77
2021/04/04 05:12:18;;;;;;;15.33;7.73;;;;;;;3.73;77.59;101267.94;5042754;28;20205;-75
2021/04/04 05:14:44;;;;;;;18.83;8.50;;;;;;;3.85;77.52;101265.59;5047721;28;20213;-75
2021/04/04 05:17:10;;;;;;;19.77;7.83;;;;;;;3.79;77.28;101273.22;5045251;28;20553;-77
2021/04/04 05:19:36;;;;;;;11.63;7.27;;;;;;;3.78;76.97;101266.31;5048027;28;20272;-77
2021/04/04 05:22:02;;;;;;;16.03;7.70;;;;;;;3.81;77.15;101266.38;5037798;28;20198;-78
2021/04/04 05:24:30;;;;;;;12.53;7.13;;;;;;;3.70;77.09;101257.50;5031107;28;20257;-77
2021/04/04 05:26:56;;;;;;;19.80;7.93;;;;;;;3.80;77.08;101271.50;5040444;28;20190;-76
2021/04/04 05:29:22;;;;;;;15.60;8.47;;;;;;;3.74;77.63;101270.50;5035289;28;20241;-78
2021/04/04 05:31:50;;;;;;;12.57;8.30;;;;;;;3.67;77.93;101267.78;5035932;28;20198;-77
2021/04/04 05:34:16;;;;;;;27.83;8.53;;;;;;;3.61;78.28;101268.53;5033721;28;20681;-76
2021/04/04 05:36:50;;;;;;;20.37;8.70;;;;;;;3.58;78.41;101266.72;5033553;28;20260;-77
2021/04/04 05:39:18;;;;;;;13.63;7.37;;;;;;;3.63;78.90;101268.53;5031869;28;20230;-77
2021/04/04 05:41:48;;;;;;;20.57;8.60;;;;;;;3.71;78.48;101264.44;5035402;28;20202;-77
2021/04/04 05:44:17;;;;;;;17.10;7.03;;;;;;;3.91;77.81;101264.88;5031477;28;20217;-77
2021/04/04 05:46:50;;;;;;;13.77;7.00;;;;;;;3.92;77.82;101269.19;5034994;28;20199;-78
2021/04/04 05:49:18;;;;;;;18.27;7.77;;;;;;;3.83;77.41;101263.84;5031876;28;20230;-77
2021/04/04 05:51:54;;;;;;;10.63;8.53;;;;;;;3.83;77.68;101261.25;5035497;28;20705;-79
2021/04/04 05:54:36;;;;;;;13.70;7.87;;;;;;;3.97;76.92;101271.03;5034402;28;20202;-78
2021/04/04 05:57:08;;;;;;;14.80;6.43;;;;;;;4.00;77.04;101264.19;5033427;28;20202;-77
2021/04/04 05:59:37;;;;;;;9.30;6.27;;;;;;;4.01;76.38;101271.13;5030337;28;20877;-76
2021/04/04 06:02:49;;;;;;;16.53;7.53;;;;;;;4.04;76.68;101266.84;5036565;28;20202;-80
2021/04/04 06:05:31;;;;;;;14.63;6.80;;;;;;;4.08;76.93;101278.13;5035105;28;20202;-78
2021/04/04 06:08:25;;;;;;;13.83;6.37;;;;;;;3.98;76.94;101270.22;5043574;28;20196;-80
2021/04/04 06:11:02;;;;;;;15.80;7.67;;;;;;;3.88;77.27;101268.25;5038731;28;20615;-79
2021/04/04 06:13:37;;;;;;;13.50;6.37;;;;;;;3.94;77.26;101276.16;5054214;28;20586;-78
2021/04/04 06:16:14;;;;;;;14.00;7.33;;;;;;;4.04;77.41;101273.75;5047537;28;20226;-77
2021/04/04 06:18:59;;;;;;;12.17;6.57;;;;;;;4.10;76.77;101272.19;5057388;28;20331;-79
2021/04/04 06:21:32;;;;;;;10.73;6.03;;;;;;;4.13;75.86;101277.41;5048489;28;20197;-78
2021/04/04 06:24:06;;;;;;;14.60;6.50;;;;;;;4.12;75.78;101275.66;5056406;28;20200;-79
2021/04/04 06:26:37;;;;;;;15.47;5.53;;;;;;;4.14;74.94;101271.41;5044861;28;20634;-77
2021/04/04 06:29:11;;;;;;;10.57;5.93;;;;;;;4.04;74.72;101268.56;5052329;28;20233;-78
2021/04/04 06:31:47;;;;;;;13.07;6.27;;;;;;;4.09;74.41;101273.00;5046991;28;20201;-76
2021/04/04 06:34:18;;;;;;;15.77;5.60;;;;;;;4.13;74.58;101274.81;5035825;28;20754;-76
2021/04/04 06:36:55;;;;;;;18.20;6.33;;;;;;;4.36;75.05;101275.28;5031803;28;20230;-76
2021/04/04 06:39:35;;;;;;;10.40;5.30;;;;;;;4.50;73.54;101274.66;5029133;28;20226;-76
2021/04/04 06:42:10;;;;;;;12.07;4.43;;;;;;;4.56;72.25;101275.69;5033473;28;20232;-77
2021/04/04 06:44:55;;;;;;;13.77;5.17;;;;;;;4.69;71.53;101284.53;5029298;28;20247;-77
2021/04/04 06:47:28;;;;;;;10.47;4.23;;;;;;;4.56;71.16;101275.69;5034016;28;20197;-77
2021/04/04 06:50:16;;;;;;;15.37;5.10;;;;;;;4.72;71.47;101281.16;5031910;28;20236;-77
2021/04/04 06:52:51;;;;;;;10.57;4.53;;;;;;;4.62;71.15;101285.28;5033103;28;20206;-77
2021/04/04 06:55:24;;;;;;;11.10;5.33;;;;;;;4.74;71.51;101282.91;5031294;28;20218;-79
2021/04/04 06:58:09;;;;;;;8.50;4.90;;;;;;;4.90;71.22;101289.22;5029418;28;20211;-79
2021/04/04 07:00:42;;;;;;;12.83;4.60;;;;;;;4.76;71.00;101286.41;5027603;28;20229;-76
2021/04/04 07:03:10;;;;;;;10.77;3.90;;;;;;;4.75;70.72;101281.19;5028735;28;20214;-76
2021/04/04 07:05:42;;;;;;;8.97;4.10;;;;;;;4.80;70.58;101287.31;5028828;28;20221;-76
2021/04/04 07:08:53;;;;;;;10.33;4.70;;;;;;;4.74;70.40;101274.28;5026955;28;20287;-77
2021/04/04 07:11:25;;;;;;;16.60;5.33;;;;;;;4.78;70.81;101281.25;5030171;28;20207;-76
2021/04/04 07:14:25;;;;;;;9.23;4.67;;;;;;;4.91;69.43;101275.44;5032862;28;20193;-76
2021/04/04 07:17:08;;;;;;;12.40;5.50;;;;;;;4.61;67.92;101275.75;5029953;28;20232;-76
2021/04/04 07:19:47;;;;;;;12.37;5.87;;;;;;;4.50;68.66;101280.72;5026195;28;20300;-76
2021/04/04 07:22:23;;;;;;;9.83;5.37;;;;;;;4.45;69.44;101276.31;5028284;28;20205;-75
2021/04/04 07:25:04;;;;;;;17.33;5.63;;;;;;;4.42;69.62;101277.13;5032095;28;20197;-75
2021/04/04 07:27:48;;;;;;;10.23;4.57;;;;;;;4.55;67.99;101278.22;5025613;28;20202;-76
2021/04/04 07:30:31;;;;;;;10.40;5.10;;;;;;;4.62;68.02;101279.19;5029258;28;20269;-76
2021/04/04 07:33:07;;;;;;;8.73;4.67;;;;;;;4.62;68.68;101276.63;5027058;28;20266;-75
2021/04/04 07:35:41;;;;;;;14.07;5.70;;;;;;;4.78;67.91;101279.53;5030164;28;20652;-76
2021/04/04 07:38:15;;;;;;;11.00;4.97;;;;;;;4.82;66.11;101282.19;5031060;28;20235;-76
2021/04/04 07:40:52;;;;;;;8.57;4.40;;;;;;;4.89;65.10;101286.59;5031289;28;20697;-74
2021/04/04 07:43:26;;;;;;;13.63;4.40;;;;;;;4.83;65.01;101289.09;5034143;28;20202;-75
2021/04/04 07:46:01;;;;;;;8.87;4.57;;;;;;;4.89;65.64;101287.47;5049244;28;20228;-76
2021/04/04 07:48:35;;;;;;;13.60;5.30;;;;;;;5.01;65.77;101276.47;5043945;28;20586;-75
2021/04/04 07:51:05;;;;;;;8.47;4.83;;;;;;;5.14;65.75;101280.16;5029378;28;20206;-77
2021/04/04 07:53:42;;;;;;;7.10;6.03;;;;;;;4.91;65.64;101275.44;5031983;28;20233;-74
2021/04/04 07:56:16;;;;;;;9.50;4.37;;;;;;;4.76;65.05;101283.81;5031718;28;20218;-76
2021/04/04 07:58:49;;;;;;;12.30;6.10;;;;;;;4.92;64.83;101289.25;5031375;28;20198;-77
2021/04/04 08:01:19;;;;;;;12.77;5.27;;;;;;;4.97;64.04;101285.03;5032105;28;20202;-76
2021/04/04 08:03:50;;;;;;;10.17;5.47;;;;;;;4.70;64.58;101285.41;5031066;28;20977;-76
2021/04/04 08:06:19;;;;;;;11.00;5.13;;;;;;;4.84;64.47;101285.69;5031956;28;20688;-76
2021/04/04 08:08:52;;;;;;;8.83;4.20;;;;;;;4.89;63.65;101281.44;5027701;28;20207;-77
2021/04/04 08:11:23;;;;;;;11.23;4.23;;;;;;;4.62;64.59;101285.28;5033721;28;20206;-76
2021/04/04 08:13:57;;;;;;;12.70;4.87;;;;;;;4.66;64.58;101289.66;5029926;28;20577;-75
2021/04/04 08:16:30;;;;;;;9.03;3.63;;;;;;;4.82;64.10;101277.88;5033364;28;20249;-75
2021/04/04 08:18:56;;;;;;;16.43;4.40;;;;;;;4.86;64.38;101283.97;5028529;28;20242;-76
2021/04/04 08:21:26;;;;;;;7.73;4.03;;;;;;;5.00;64.10;101276.47;5031425;28;20691;-76
2021/04/04 08:23:56;;;;;;;8.70;4.83;;;;;;;5.03;65.04;101292.03;5029770;28;20203;-76
2021/04/04 08:26:26;;;;;;;7.40;3.90;;;;;;;4.91;63.94;101285.78;5033476;28;20206;-76
2021/04/04 08:28:59;;;;;;;16.20;4.47;;;;;;;4.87;64.06;101294.34;5027701;28;20580;-76
2021/04/04 08:31:29;;;;;;;7.63;4.00;;;;;;;4.60;63.73;101288.66;5033315;28;20583;-75
2021/04/04 08:34:01;;;;;;;13.93;4.60;;;;;;;4.73;63.97;101290.63;5034955;28;20194;-76
2021/04/04 08:36:31;;;;;;;9.50;3.90;;;;;;;4.95;63.91;101297.06;5028104;28;20214;-76
2021/04/04 08:39:00;;;;;;;10.67;3.87;;;;;;;5.08;63.24;101283.50;5038213;28;20230;-74
2021/04/04 08:41:28;;;;;;;10.23;4.37;;;;;;;5.17;62.86;101286.25;5044303;28;20202;-75
2021/04/04 08:43:59;;;;;;;9.73;4.40;;;;;;;5.23;62.79;101282.00;5040402;28;20200;-74
2021/04/04 08:46:32;;;;;;;6.07;3.87;;;;;;;5.14;62.54;101286.19;5030458;28;20214;-76
2021/04/04 08:48:59;;;;;;;9.40;5.00;;;;;;;5.23;62.75;101284.59;5030012;28;20728;-76
2021/04/04 08:51:29;;;;;;;12.60;4.23;;;;;;;5.29;62.20;101285.59;5040212;28;20210;-77
2021/04/04 08:53:57;;;;;;;7.47;3.80;;;;;;;5.30;62.50;101286.47;5033481;28;20214;-76
2021/04/04 08:56:26;;;;;;;10.27;4.47;;;;;;;5.33;62.56;101278.72;5044774;28;20234;-76
2021/04/04 08:58:56;;;;;;;11.77;4.43;;;;;;;5.28;63.03;101290.75;5027830;28;20206;-76
2021/04/04 09:01:27;;;;;;;7.57;4.20;;;;;;;5.01;63.94;101283.38;5040289;28;20237;-76
2021/04/04 09:03:57;;;;;;;11.23;4.30;;;;;;;5.10;64.46;101287.00;5026736;28;20696;-75
2021/04/04 09:06:24;;;;;;;10.73;4.63;;;;;;;5.01;63.36;101283.38;5030770;28;20226;-75
2021/04/04 09:08:51;;;;;;;13.20;5.07;;;;;;;4.87;63.57;101283.13;5030435;28;20209;-75
2021/04/04 09:11:18;;;;;;;11.27;4.60;;;;;;;5.07;63.86;101288.66;5030166;28;20230;-75
2021/04/04 09:13:46;;;;;;;6.40;3.63;;;;;;;5.10;64.17;101284.41;5030619;28;20210;-75
2021/04/04 09:16:14;;;;;;;6.47;3.60;;;;;;;5.09;63.92;101282.66;5030546;28;20267;-74
2021/04/04 09:18:44;;;;;;;9.83;3.80;;;;;;;5.21;64.77;101281.97;5033424;28;20643;-74
2021/04/04 09:21:11;;;;;;;8.83;4.03;;;;;;;5.18;63.44;101282.81;5030618;28;20565;-75
2021/04/04 09:23:37;;;;;;;6.23;3.53;;;;;;;5.14;63.99;101280.16;5034431;28;20202;-74
2021/04/04 09:26:06;;;;;;;9.60;3.80;;;;;;;5.08;64.56;101283.50;5033727;28;20233;-73
2021/04/04 09:28:36;;;;;;;9.30;4.10;;;;;;;5.33;63.98;101282.22;5034340;28;20202;-74
2021/04/04 09:31:04;;;;;;;5.87;3.70;;;;;;;5.26;64.48;101270.00;5032162;28;20234;-77
2021/04/04 09:33:34;;;;;;;6.53;4.00;;;;;;;5.16;64.38;101275.88;5029438;28;20214;-73
2021/04/04 09:36:03;;;;;;;6.63;4.13;;;;;;;5.06;63.89;101266.22;5031166;28;20272;-75
2021/04/04 09:38:31;;;;;;;7.20;4.00;;;;;;;5.09;63.93;101272.28;5025105;28;20260;-75
2021/04/04 09:40:59;;;;;;;6.93;4.23;;;;;;;5.18;63.69;101258.66;5024188;28;20233;-76
2021/04/04 09:43:26;;;;;;;6.67;3.93;;;;;;;5.40;62.70;101256.41;5018269;28;20244;-76
2021/04/04 09:46:03;;;;;;;6.83;3.23;;;;;;;5.51;62.82;101258.31;5021067;28;20202;-76
2021/04/04 09:48:29;;;;;;;6.17;3.23;;;;;;;5.50;63.80;101260.88;5022553;28;20209;-77
2021/04/04 09:51:06;;;;;;;5.80;3.13;;;;;;;5.51;62.96;101250.56;5018760;28;20245;-77
2021/04/04 09:53:36;;;;;;;3.93;2.67;;;;;;;5.51;63.21;101254.84;5022001;28;20238;-77
2021/04/04 09:56:09;;;;;;;8.27;2.83;;;;;;;5.61;63.83;101254.16;5023978;28;20233;-77
2021/04/04 09:58:39;;;;;;;7.47;3.10;;;;;;;5.75;61.96;101250.03;5025016;28;20199;-78
2021/04/04 10:01:15;;;;;;;4.77;2.73;;;;;;;5.78;62.11;101250.06;5022847;28;20301;-77
2021/04/04 10:03:41;;;;;;;5.30;3.53;;;;;;;5.75;62.74;101242.25;5024593;28;20201;-77
2021/04/04 10:06:12;;;;;;;5.97;3.13;;;;;;;5.77;63.15;101255.25;5021689;28;20202;-76
2021/04/04 10:08:38;;;;;;;4.20;3.20;;;;;;;5.73;63.51;101250.88;5019829;28;20352;-77
2021/04/04 10:11:14;;;;;;;5.60;2.90;;;;;;;5.62;64.21;101242.06;5020559;28;20213;-77
2021/04/04 10:13:40;;;;;;;4.77;3.30;;;;;;;5.49;63.89;101239.31;5020710;28;20248;-76
2021/04/04 10:16:22;;;;;;;6.73;2.90;;;;;;;5.33;63.81;101245.06;5021685;28;20230;-74
2021/04/04 10:19:03;;;;;;;5.10;3.27;;;;;;;5.61;64.02;101235.13;5023125;28;20201;-75
2021/04/04 10:21:29;;;;;;;9.63;3.20;;;;;;;5.52;64.98;101238.47;5022810;28;20692;-76
2021/04/04 10:23:55;;;;;;;4.60;2.87;;;;;;;5.43;64.13;101238.31;5022797;28;20587;-75
2021/04/04 10:26:23;;;;;;;3.40;2.87;;;;;;;5.64;64.84;101232.59;5021386;28;20210;-76
2021/04/04 10:28:53;;;;;;;7.30;3.33;;;;;;;5.72;64.68;101225.78;5023891;28;20205;-77
2021/04/04 10:31:20;;;;;;;4.40;2.93;;;;;;;5.79;64.84;101235.41;5023036;28;20210;-76
2021/04/04 10:33:56;;;;;;;3.20;2.80;;;;;;;5.68;65.03;101219.69;5022831;28;20234;-76
2021/04/04 10:36:24;;;;;;;3.87;2.67;;;;;;;5.50;66.48;101224.63;5023269;28;20576;-76
2021/04/04 10:38:50;;;;;;;4.17;2.50;;;;;;;5.44;66.19;101221.94;5022760;28;20336;-76
2021/04/04 10:41:26;;;;;;;2.30;2.10;;;;;;;5.68;65.42;101206.75;5023283;28;20276;-76
2021/04/04 10:43:52;;;;;;;4.30;2.30;;;;;;;5.93;64.91;101201.91;5022219;28;20197;-76
2021/04/04 10:46:18;;;;;;;5.60;2.50;;;;;;;6.12;64.64;101192.63;5023097;28;20210;-76
2021/04/04 10:48:47;;;;;;;5.17;2.53;;;;;;;6.11;63.95;101191.78;5023428;28;20234;-77
2021/04/04 10:51:15;;;;;;;5.30;2.53;;;;;;;6.19;63.80;101196.19;5021533;28;20210;-76
2021/04/04 10:53:43;;;;;;;3.90;2.50;;;;;;;6.08;64.59;101190.88;5022693;28;20202;-76
2021/04/04 10:56:11;;;;;;;4.63;2.73;;;;;;;6.20;64.10;101191.00;5021986;28;20357;-83
2021/04/04 10:58:38;;;;;;;28.23;4.20;;;;;;;6.15;64.00;101185.78;5019921;28;20272;-76
2021/04/04 11:01:05;;;;;;;3.13;2.40;;;;;;;5.92;65.00;101190.63;5018111;28;20206;-76
2021/04/04 11:03:32;;;;;;;3.10;2.20;;;;;;;5.80;67.55;101187.03;5020749;28;20224;-76
2021/04/04 11:05:59;;;;;;;2.63;2.00;;;;;;;5.63;68.42;101177.34;5021861;28;20233;-77
2021/04/04 11:08:25;;;;;;;3.03;2.00;;;;;;;5.76;68.18;101180.94;5021636;28;20245;-77
2021/04/04 11:10:52;;;;;;;2.27;1.77;;;;;;;5.70;68.58;101184.31;5022127;28;20265;-76
2021/04/04 11:13:20;;;;;;;2.23;2.03;;;;;;;5.69;68.44;101177.41;5021998;28;20700;-76
2021/04/04 11:15:50;;;;;;;3.50;2.23;;;;;;;5.84;68.19;101173.28;5022885;28;20521;-76
2021/04/04 11:18:19;;;;;;;3.07;2.40;;;;;;;5.95;68.49;101171.72;5021498;28;20214;-77
2021/04/04 11:20:48;;;;;;;3.20;2.30;;;;;;;6.07;67.10;101171.00;5022372;28;20279;-76
2021/04/04 11:23:18;;;;;;;3.53;2.40;;;;;;;6.05;67.54;101162.34;5023207;28;20245;-76
2021/04/04 11:25:44;;;;;;;2.33;1.80;;;;;;;5.99;67.45;101157.94;5022833;28;20213;-77
2021/04/04 11:28:15;;;;;;;2.60;1.80;;;;;;;5.98;67.17;101151.00;5020470;28;20214;-76
2021/04/04 11:30:43;;;;;;;3.27;1.40;;;;;;;5.85;67.34;101157.75;5021914;28;20230;-76
2021/04/04 11:33:38;;;;;;;2.93;1.70;;;;;;;6.13;66.24;101146.00;5022358;28;20208;-76
2021/04/04 11:36:08;;;;;;;2.77;1.40;;;;;;;6.05;65.78;101142.47;5021334;28;20214;-76
2021/04/04 11:38:37;;;;;;;4.30;1.93;;;;;;;5.91;66.09;101141.41;5020460;28;20340;-79
2021/04/04 11:41:21;;;;;;;1.30;1.20;;;;;;;5.97;66.14;101137.19;5022598;28;20217;-75